Terminal Aerodrome Forecast
Issued by NWS Pittsburgh, PA

Current Version | Previous Version | Graphics & Text | Print | Product List | Glossary Off
Versions: 1 2 3 4 5 6 7 8 9 10 11 12 13 14 15 16 17 18 19 20 21 22 23 24 25 26 27 28 29 30 31 32

642
FTUS41 KPBZ 052057 AAA
TAFPIT
TAF AMD
KPIT 052057Z 0521/0624 36012KT P6SM VCSH BKN040
     FM060700 34006KT P6SM VCSH SCT025 BKN040
     FM061400 35012G19KT P6SM VCSH BKN040=

USA.gov is the U.S. government's official web portal to all federal, state and local government web resources and services.